Aventura, Florida
Current Conditions -  °F | °C
As of 11:53 AM on Wednesday 26 Nov 2014 (Local Time) from KHWO Reporting Station
Overcast Overcast  
Wind Chill: 71°   Ceiling: 2200
Heat Index: 71°   Visibility: 10mi
Dew Point: 64°   Wind: 17mph
Humidity: 78%   Direction: 330°NNW
Pressure: 30.09"   Gusts: NA
Location:  25.9536°N, 80.1568°W
Report Text: KHWO 261653Z 33015KT 10SM OVC022 22/18 A3009 RMK AO2 SLP190 T02170178
Loading
Personal Weather Stations






























Interactive Weather Map New forecast layout! Learn more

10-Day Weather Forecast

Advertisements
Track Severe Weather on mobile